Time;durP1;ratioP1;P1;durP2;ratioP2;P2;SDS_P1;SDS_P2;PMS_P1;PMS_P2;Temp;Humidity;BMP_temperature;BMP_pressure;BME280_temperature;BME280_humidity;BME280_pressure;Samples;Min_cycle;Max_cycle;Signal;HPM_P1;HPM_P2
2021/06/27 00:01:24;;;;;;;5.13;1.35;;;;;;;23.56;59.69;100405.06;5042789;28;20048;-79
2021/06/27 00:04:49;;;;;;;5.15;1.40;;;;;;;23.55;59.75;100413.50;5037070;28;20044;-80
2021/06/27 00:07:54;;;;;;;4.00;1.50;;;;;;;23.44;60.16;100415.03;5031558;28;20052;-79
2021/06/27 00:10:59;;;;;;;3.60;1.50;;;;;;;23.35;59.88;100423.66;5042547;28;20048;-79
2021/06/27 00:14:05;;;;;;;4.13;1.40;;;;;;;23.38;60.40;100413.13;5031365;28;20056;-79
2021/06/27 00:17:09;;;;;;;6.00;1.80;;;;;;;23.45;59.85;100422.19;5031242;28;20051;-80
2021/06/27 00:20:21;;;;;;;5.53;1.90;;;;;;;23.47;60.17;100430.19;5030436;28;20099;-80
2021/06/27 00:23:29;;;;;;;4.03;1.33;;;;;;;23.37;60.17;100421.59;5030858;28;20059;-79
2021/06/27 00:26:33;;;;;;;6.43;1.48;;;;;;;23.25;60.35;100424.97;5042355;28;20052;-79
2021/06/27 00:29:38;;;;;;;6.85;1.35;;;;;;;23.19;60.29;100430.44;5042454;28;20048;-79
2021/06/27 00:32:43;;;;;;;8.73;1.40;;;;;;;23.24;60.82;100433.38;5030452;28;20048;-79
2021/06/27 00:35:48;;;;;;;8.45;1.88;;;;;;;23.14;60.70;100435.72;5030740;28;20052;-80
2021/06/27 00:38:52;;;;;;;6.05;1.58;;;;;;;23.08;61.02;100445.66;5030562;28;20064;-79
2021/06/27 00:41:56;;;;;;;3.75;1.63;;;;;;;23.23;60.52;100439.94;5030647;28;20060;-80
2021/06/27 00:45:02;;;;;;;6.15;1.60;;;;;;;23.16;60.96;100448.16;5031039;28;20064;-80
2021/06/27 00:48:08;;;;;;;5.32;1.83;;;;;;;23.17;60.60;100447.09;5030663;28;20048;-80
2021/06/27 00:51:12;;;;;;;7.05;1.33;;;;;;;23.09;60.71;100452.78;5030582;28;20063;-79
2021/06/27 00:54:17;;;;;;;7.20;1.50;;;;;;;23.15;60.88;100451.13;5030234;28;20056;-79
2021/06/27 00:57:21;;;;;;;5.20;1.95;;;;;;;23.12;60.72;100451.53;5030262;28;20409;-79
2021/06/27 01:00:32;;;;;;;5.13;1.40;;;;;;;23.09;60.50;100451.94;5042074;28;20396;-80
2021/06/27 01:03:37;;;;;;;4.97;1.63;;;;;;;23.16;60.17;100444.56;5041698;28;20049;-81
2021/06/27 01:06:42;;;;;;;3.75;1.70;;;;;;;23.19;60.16;100447.72;5029525;28;20056;-79
2021/06/27 01:09:46;;;;;;;4.05;1.30;;;;;;;23.21;59.77;100452.97;5041481;28;20052;-79
2021/06/27 01:12:52;;;;;;;6.05;1.67;;;;;;;23.11;59.64;100445.22;5041851;28;20052;-79
2021/06/27 01:15:56;;;;;;;6.50;1.50;;;;;;;23.10;60.26;100448.16;5030233;28;20048;-79
2021/06/27 01:19:01;;;;;;;6.30;1.30;;;;;;;23.12;59.83;100455.13;5041202;28;20056;-79
2021/06/27 01:22:05;;;;;;;3.85;1.48;;;;;;;23.23;59.42;100457.19;5030455;28;20052;-80
2021/06/27 01:25:11;;;;;;;4.43;1.40;;;;;;;23.36;59.18;100452.75;5030474;28;20388;-79
2021/06/27 01:28:16;;;;;;;4.40;1.50;;;;;;;23.47;58.89;100450.22;5030147;28;20415;-79
2021/06/27 01:31:21;;;;;;;2.53;1.20;;;;;;;23.60;58.65;100450.16;5041448;28;20048;-80
2021/06/27 01:34:25;;;;;;;3.15;1.30;;;;;;;23.72;58.62;100459.41;5029489;28;20052;-80
2021/06/27 01:37:30;;;;;;;2.75;1.13;;;;;;;23.84;57.92;100451.34;5041258;28;20048;-79
2021/06/27 01:40:35;;;;;;;3.78;1.25;;;;;;;23.86;58.04;100450.06;5041302;28;20056;-80
2021/06/27 01:43:41;;;;;;;5.18;1.13;;;;;;;23.87;57.90;100454.47;4973248;28;20586;-80
2021/06/27 01:46:35;;;;;;;6.55;1.40;;;;;;;23.78;58.23;100452.19;4966833;28;20046;-80
2021/06/27 01:49:41;;;;;;;3.75;1.25;;;;;;;23.52;59.02;100468.75;4961680;28;20190;-79
2021/06/27 01:52:45;;;;;;;3.47;1.45;;;;;;;23.33;59.41;100460.31;4950869;28;20054;-80
2021/06/27 01:56:04;;;;;;;4.22;1.50;;;;;;;23.19;59.63;100452.34;4961594;28;20057;-80
2021/06/27 01:59:09;;;;;;;4.43;1.35;;;;;;;23.15;59.89;100456.59;4950285;28;20053;-79
2021/06/27 02:02:15;;;;;;;6.00;1.73;;;;;;;23.06;59.87;100452.41;4961770;28;20138;-79
2021/06/27 02:05:20;;;;;;;5.70;1.52;;;;;;;22.89;60.87;100457.44;4961540;28;20437;-79
2021/06/27 02:08:33;;;;;;;4.35;1.55;;;;;;;22.69;61.13;100459.34;4950644;28;20050;-80
2021/06/27 02:11:39;;;;;;;4.07;1.45;;;;;;;22.62;61.44;100459.34;4954230;28;20220;-80
2021/06/27 02:14:44;;;;;;;6.07;2.08;;;;;;;22.52;61.59;100442.47;4965300;28;20058;-80
2021/06/27 02:17:56;;;;;;;3.60;1.50;;;;;;;22.42;62.21;100439.31;4953514;28;20139;-80
2021/06/27 02:21:11;;;;;;;4.05;1.42;;;;;;;22.39;62.41;100434.25;5018910;28;20044;-79
2021/06/27 02:24:16;;;;;;;3.60;1.73;;;;;;;22.32;62.53;100422.47;5025368;28;20047;-80
2021/06/27 02:27:20;;;;;;;5.15;1.75;;;;;;;22.25;63.11;100412.56;5024792;28;20052;-79
2021/06/27 02:30:24;;;;;;;6.15;1.55;;;;;;;22.25;62.56;100420.78;5024783;28;20400;-79
2021/06/27 02:33:30;;;;;;;4.70;1.90;;;;;;;22.11;63.14;100419.94;5027026;28;20103;-79
2021/06/27 02:36:34;;;;;;;5.55;1.73;;;;;;;22.08;62.89;100414.88;5047301;28;20063;-79
2021/06/27 02:39:38;;;;;;;7.47;1.65;;;;;;;22.04;63.53;100424.53;5053699;28;20056;-79
2021/06/27 02:42:42;;;;;;;7.00;1.50;;;;;;;21.99;63.47;100421.59;5046891;28;20052;-80
2021/06/27 02:45:48;;;;;;;3.95;1.40;;;;;;;21.99;63.72;100421.59;5047183;28;20045;-79
2021/06/27 02:48:52;;;;;;;4.88;1.77;;;;;;;22.02;63.63;100421.19;5047438;28;20044;-80
2021/06/27 02:51:43;;;;;;;7.63;1.48;;;;;;;22.01;63.21;100422.22;5055106;28;20044;-79
2021/06/27 02:54:48;;;;;;;5.45;1.50;;;;;;;21.83;63.50;100425.50;5035578;28;20076;-79
2021/06/27 02:57:52;;;;;;;3.95;1.60;;;;;;;21.71;64.04;100435.34;5046636;28;20056;-79
2021/06/27 03:00:41;;;;;;;3.05;1.45;;;;;;;21.63;64.80;100431.94;5055305;28;20503;-78
2021/06/27 03:03:47;;;;;;;4.07;1.40;;;;;;;21.66;64.50;100434.25;5046773;28;20063;-79
2021/06/27 03:06:51;;;;;;;7.63;2.15;;;;;;;21.64;64.92;100436.38;5046665;28;20052;-80
2021/06/27 03:09:56;;;;;;;4.45;1.30;;;;;;;21.67;64.85;100433.22;5046446;28;20496;-81
2021/06/27 03:13:00;;;;;;;4.38;1.63;;;;;;;21.64;65.02;100428.16;5035235;28;20052;-80
2021/06/27 03:16:07;;;;;;;4.63;2.00;;;;;;;21.52;65.33;100425.19;5046866;28;20053;-81
2021/06/27 03:19:14;;;;;;;4.25;1.75;;;;;;;21.47;65.62;100437.75;5035248;28;20117;-81
2021/06/27 03:22:19;;;;;;;5.60;1.90;;;;;;;21.50;65.52;100435.47;5034972;28;20230;-82
2021/06/27 03:25:26;;;;;;;5.70;1.67;;;;;;;21.52;65.32;100432.53;5046427;28;20148;-80
2021/06/27 03:28:34;;;;;;;6.28;2.00;;;;;;;21.48;65.56;100434.00;5046271;28;20049;-80
2021/06/27 03:31:38;;;;;;;6.13;2.08;;;;;;;21.39;65.95;100425.13;5034641;28;20057;-81
2021/06/27 03:34:43;;;;;;;6.80;1.58;;;;;;;21.33;66.12;100425.94;5057291;28;20056;-81
2021/06/27 03:37:59;;;;;;;3.95;1.80;;;;;;;21.28;66.29;100418.31;5046385;28;20053;-80
2021/06/27 03:41:03;;;;;;;4.88;1.67;;;;;;;21.21;66.25;100412.00;5046177;28;20053;-80
2021/06/27 03:44:08;;;;;;;8.60;1.88;;;;;;;21.21;66.32;100416.59;5034708;28;20056;-80
2021/06/27 03:47:12;;;;;;;5.88;1.48;;;;;;;21.19;66.58;100427.75;5046337;28;20049;-80
2021/06/27 03:50:19;;;;;;;3.63;1.52;;;;;;;21.14;66.66;100424.78;5046007;28;20048;-81
2021/06/27 03:53:23;;;;;;;4.35;2.00;;;;;;;21.15;66.45;100418.28;5034425;28;20468;-80
2021/06/27 03:56:27;;;;;;;4.00;1.90;;;;;;;21.15;66.66;100426.47;5034261;28;20487;-80
2021/06/27 03:59:32;;;;;;;5.63;1.75;;;;;;;21.18;66.67;100431.50;5022953;28;20061;-80
2021/06/27 04:02:37;;;;;;;4.70;1.88;;;;;;;21.22;66.60;100438.25;5023027;28;20052;-81
2021/06/27 04:05:42;;;;;;;6.90;1.60;;;;;;;21.36;65.91;100433.72;5032643;28;20075;-80
2021/06/27 04:08:46;;;;;;;3.65;1.60;;;;;;;21.49;65.30;100432.94;5030867;28;20060;-80
2021/06/27 04:11:50;;;;;;;4.85;1.80;;;;;;;21.55;65.13;100429.41;5031508;28;20052;-81
2021/06/27 04:14:55;;;;;;;5.00;1.60;;;;;;;21.71;64.91;100429.03;5042890;28;20052;-80
2021/06/27 04:17:59;;;;;;;4.68;1.63;;;;;;;21.84;64.46;100431.81;5031212;28;20056;-80
2021/06/27 04:21:05;;;;;;;4.25;1.70;;;;;;;21.95;63.52;100432.09;5042506;28;20052;-80
2021/06/27 04:24:10;;;;;;;6.32;1.50;;;;;;;22.21;63.19;100433.19;5033579;28;20056;-81
2021/06/27 04:27:14;;;;;;;4.50;1.42;;;;;;;22.56;61.77;100441.03;5035645;28;20053;-80
2021/06/27 04:30:19;;;;;;;5.80;1.50;;;;;;;22.88;60.65;100427.56;5031040;28;20120;-81
2021/06/27 04:33:23;;;;;;;4.05;1.63;;;;;;;23.16;59.76;100430.88;5030117;28;20064;-80
2021/06/27 04:36:28;;;;;;;5.78;1.42;;;;;;;23.62;58.79;100430.75;5041979;28;20404;-81
2021/06/27 04:39:32;;;;;;;8.55;1.63;;;;;;;24.03;57.11;100435.81;5040847;28;20064;-80
2021/06/27 04:42:37;;;;;;;5.28;1.85;;;;;;;24.24;56.72;100435.53;5041173;28;20052;-81
2021/06/27 04:45:42;;;;;;;6.95;1.80;;;;;;;24.32;55.92;100418.81;5030557;28;20048;-81
2021/06/27 04:48:46;;;;;;;8.30;1.58;;;;;;;24.30;56.27;100420.91;5030979;28;20388;-80
2021/06/27 04:51:50;;;;;;;6.47;1.70;;;;;;;24.49;55.88;100422.69;5041941;28;20048;-80
2021/06/27 04:54:55;;;;;;;2.95;1.23;;;;;;;25.09;53.97;100429.31;5030637;28;20100;-78
2021/06/27 04:57:59;;;;;;;4.30;1.23;;;;;;;24.99;53.98;100429.84;5029880;28;20048;-79
2021/06/27 05:01:03;;;;;;;3.08;1.08;;;;;;;25.20;53.64;100431.34;5030472;28;20388;-80
2021/06/27 05:04:07;;;;;;;4.00;1.45;;;;;;;25.29;53.54;100429.97;5030464;28;20513;-80
2021/06/27 05:07:12;;;;;;;3.53;1.45;;;;;;;25.96;52.43;100430.84;5030183;28;20048;-80
2021/06/27 05:10:16;;;;;;;5.68;2.10;;;;;;;26.49;50.94;100432.59;5029731;28;20044;-80
2021/06/27 05:13:21;;;;;;;7.88;1.40;;;;;;;26.66;49.97;100441.03;5041296;28;20397;-80
2021/06/27 05:16:26;;;;;;;4.40;1.50;;;;;;;27.52;48.84;100443.94;5042100;28;20056;-80
2021/06/27 05:19:31;;;;;;;5.40;1.30;;;;;;;29.06;44.87;100444.66;5062044;28;20519;-81
2021/06/27 05:22:36;;;;;;;4.55;1.20;;;;;;;30.16;42.51;100439.78;5033305;28;20503;-80
2021/06/27 05:25:40;;;;;;;5.85;1.90;;;;;;;31.65;39.89;100434.09;5010396;28;20052;-81
2021/06/27 05:28:45;;;;;;;3.58;1.20;;;;;;;32.48;37.68;100428.22;5021951;28;20039;-81
2021/06/27 05:31:49;;;;;;;5.97;1.33;;;;;;;34.76;34.62;100431.13;5021773;28;20064;-79
2021/06/27 05:34:54;;;;;;;5.32;1.30;;;;;;;36.10;31.85;100434.72;5021408;28;20053;-86
2021/06/27 05:38:43;;;;;;;6.95;1.40;;;;;;;36.76;31.05;100434.53;5010362;28;20049;-84
2021/06/27 05:41:50;;;;;;;3.93;1.00;;;;;;;37.23;29.97;100431.47;5011029;28;20500;-80
2021/06/27 05:44:56;;;;;;;6.10;1.52;;;;;;;38.36;29.29;100432.50;5011836;28;20060;-82
2021/06/27 05:48:01;;;;;;;7.80;1.15;;;;;;;37.98;29.36;100433.88;5014624;28;20448;-80
2021/06/27 05:51:06;;;;;;;5.05;1.35;;;;;;;38.06;28.70;100436.78;5023141;28;20511;-80
2021/06/27 05:54:10;;;;;;;5.30;1.40;;;;;;;39.42;27.54;100441.00;5022822;28;20060;-80
2021/06/27 05:57:16;;;;;;;4.95;1.40;;;;;;;39.71;27.27;100437.66;5011779;28;20400;-80
2021/06/27 06:00:21;;;;;;;6.85;1.50;;;;;;;40.77;25.55;100430.38;5022545;28;20052;-80
2021/06/27 06:03:26;;;;;;;3.25;1.05;;;;;;;41.66;25.01;100442.72;5011221;28;20052;-81
2021/06/27 06:06:30;;;;;;;4.07;1.40;;;;;;;41.79;24.81;100445.34;5012487;28;20061;-80
2021/06/27 06:09:35;;;;;;;6.57;1.25;;;;;;;42.72;23.77;100437.38;5025221;28;20120;-80
2021/06/27 06:12:39;;;;;;;4.80;1.67;;;;;;;42.97;23.59;100434.66;5025084;28;20048;-79
2021/06/27 06:15:43;;;;;;;5.82;1.52;;;;;;;41.88;24.13;100448.09;5024979;28;20072;-80
2021/06/27 06:18:48;;;;;;;7.93;1.30;;;;;;;41.04;25.19;100445.28;5013762;28;20385;-80
2021/06/27 06:21:53;;;;;;;8.07;1.45;;;;;;;40.65;26.25;100440.66;5013795;28;20049;-80
2021/06/27 06:24:58;;;;;;;12.05;2.35;;;;;;;40.18;26.00;100448.88;5013516;28;20052;-82
2021/06/27 06:28:02;;;;;;;7.22;1.67;;;;;;;40.02;26.14;100460.91;5024700;28;20049;-81
2021/06/27 06:31:08;;;;;;;8.90;2.00;;;;;;;39.92;26.04;100456.44;5024783;28;20057;-79
2021/06/27 06:34:13;;;;;;;9.68;2.03;;;;;;;39.81;26.29;100459.84;5023958;28;20052;-80
2021/06/27 06:37:29;;;;;;;7.90;1.90;;;;;;;40.77;25.15;100466.97;5013257;28;20388;-80
2021/06/27 06:40:34;;;;;;;7.95;1.77;;;;;;;41.44;24.97;100470.03;5024409;28;20052;-80
2021/06/27 06:43:39;;;;;;;5.72;1.70;;;;;;;42.79;22.85;100473.53;5024086;28;20052;-82
2021/06/27 06:46:43;;;;;;;6.43;1.88;;;;;;;45.48;20.34;100461.31;5024056;28;20507;-80
2021/06/27 06:49:47;;;;;;;7.60;1.98;;;;;;;46.96;19.48;100469.72;5024474;28;20086;-80
2021/06/27 06:52:52;;;;;;;14.57;7.93;;;;;;;47.77;18.57;100467.56;5024324;28;20057;-79
2021/06/27 06:55:57;;;;;;;13.77;10.88;;;;;;;49.20;17.88;100475.72;5023804;28;20044;-80
2021/06/27 06:59:01;;;;;;;9.32;2.22;;;;;;;49.38;17.63;100485.31;5035772;28;20045;-79
2021/06/27 07:02:08;;;;;;;3.83;1.60;;;;;;;49.90;17.20;100479.28;5024645;28;20057;-82
2021/06/27 07:05:12;;;;;;;6.22;1.90;;;;;;;49.11;17.11;100487.47;5022866;28;20044;-80
2021/06/27 07:08:17;;;;;;;4.93;1.85;;;;;;;49.78;16.87;100481.63;5023039;28;20140;-85
2021/06/27 07:11:21;;;;;;;6.05;1.60;;;;;;;50.57;16.15;100482.59;5011773;28;20153;-80
2021/06/27 07:14:26;;;;;;;6.53;1.92;;;;;;;51.27;15.75;100479.22;5022943;28;20511;-80
2021/06/27 07:17:32;;;;;;;4.80;1.70;;;;;;;51.62;15.65;100489.09;5033890;28;20052;-79
2021/06/27 07:20:37;;;;;;;4.78;1.75;;;;;;;52.24;15.22;100475.16;5034417;28;20572;-82
2021/06/27 07:23:42;;;;;;;8.38;2.00;;;;;;;53.06;14.80;100473.63;5034420;28;20153;-79
2021/06/27 07:26:48;;;;;;;9.10;2.22;;;;;;;52.98;15.37;100469.97;5011630;28;20052;-85
2021/06/27 07:29:52;;;;;;;7.35;1.98;;;;;;;51.61;15.48;100484.59;5022399;28;20064;-81
2021/06/27 07:32:58;;;;;;;6.63;2.05;;;;;;;53.08;14.77;100480.56;5022051;28;20052;-80
2021/06/27 07:36:04;;;;;;;8.68;2.08;;;;;;;52.14;15.04;100476.78;5023893;28;20377;-80
2021/06/27 07:39:08;;;;;;;7.07;2.00;;;;;;;50.34;16.38;100475.53;5012521;28;20057;-80
2021/06/27 07:42:13;;;;;;;11.63;2.47;;;;;;;51.52;15.67;100472.69;5023940;28;20056;-80
2021/06/27 07:45:17;;;;;;;8.32;1.92;;;;;;;52.37;15.10;100462.81;5023932;28;20049;-79
2021/06/27 07:48:22;;;;;;;10.25;4.85;;;;;;;51.85;15.19;100469.44;5024165;28;20051;-83
2021/06/27 07:51:27;;;;;;;14.15;11.82;;;;;;;53.41;14.43;100469.72;5024810;28;20388;-85
2021/06/27 07:54:31;;;;;;;7.15;2.35;;;;;;;49.65;16.57;100466.84;5034767;28;20045;-86
2021/06/27 07:57:36;;;;;;;9.05;2.10;;;;;;;49.20;17.16;100465.16;5023358;28;20400;-79
2021/06/27 08:00:41;;;;;;;7.90;2.70;;;;;;;47.94;18.35;100458.50;5021827;28;20056;-79
2021/06/27 08:03:46;;;;;;;4.57;2.50;;;;;;;46.62;19.39;100450.72;5033026;28;20057;-79
2021/06/27 08:06:51;;;;;;;6.05;2.20;;;;;;;46.03;19.67;100451.78;5021385;28;20495;-79
2021/06/27 08:09:55;;;;;;;13.25;3.35;;;;;;;47.29;18.55;100457.75;4982898;28;20053;-79
2021/06/27 08:13:01;;;;;;;12.52;2.85;;;;;;;46.24;19.72;100452.28;4971701;28;20053;-79
2021/06/27 08:16:05;;;;;;;7.32;2.85;;;;;;;44.09;21.36;100456.78;4982642;28;20045;-79
2021/06/27 08:19:09;;;;;;;9.93;3.00;;;;;;;40.56;25.28;100448.28;4982276;28;20145;-79
2021/06/27 08:22:15;;;;;;;10.80;3.50;;;;;;;38.71;26.95;100442.84;4982264;28;20058;-78
2021/06/27 08:25:21;;;;;;;6.15;2.97;;;;;;;37.08;29.32;100451.34;4982333;28;20152;-85
2021/06/27 08:28:26;;;;;;;9.20;3.03;;;;;;;36.39;30.67;100452.97;4993863;28;20053;-79
2021/06/27 08:31:31;;;;;;;9.93;3.30;;;;;;;36.42;30.79;100452.38;4995129;28;20049;-78
2021/06/27 08:34:36;;;;;;;9.18;2.80;;;;;;;36.21;31.74;100456.63;5001214;28;20041;-83
2021/06/27 08:37:42;;;;;;;7.82;2.95;;;;;;;35.54;32.29;100442.94;5001422;28;20074;-79
2021/06/27 08:40:46;;;;;;;5.07;2.30;;;;;;;35.54;32.85;100440.97;4990509;28;20049;-79
2021/06/27 08:43:53;;;;;;;9.43;2.30;;;;;;;36.00;31.92;100443.22;5001391;28;20053;-79
2021/06/27 08:47:01;;;;;;;5.55;2.33;;;;;;;36.27;31.70;100437.81;5012373;28;20084;-78
2021/06/27 08:50:09;;;;;;;9.40;2.55;;;;;;;35.96;32.57;100437.38;5002622;28;20056;-79
2021/06/27 08:53:15;;;;;;;6.47;1.77;;;;;;;36.19;32.59;100428.13;5022352;28;20048;-79
2021/06/27 08:56:19;;;;;;;9.43;2.75;;;;;;;35.65;32.91;100430.53;5011151;28;20052;-79
2021/06/27 08:59:24;;;;;;;10.13;3.13;;;;;;;34.81;33.86;100440.28;5010945;28;20060;-78
2021/06/27 09:02:30;;;;;;;7.90;3.33;;;;;;;34.05;34.17;100439.94;5021962;28;20052;-78
2021/06/27 09:05:38;;;;;;;7.20;2.80;;;;;;;34.24;34.26;100445.69;5020989;28;20048;-78
2021/06/27 09:08:42;;;;;;;11.82;4.43;;;;;;;33.50;36.22;100438.19;5032418;28;20072;-79
2021/06/27 09:11:59;;;;;;;10.05;4.00;;;;;;;33.32;36.73;100442.41;5032063;28;20060;-79
2021/06/27 09:15:06;;;;;;;9.52;4.20;;;;;;;33.62;36.77;100440.69;5021221;28;20044;-78
2021/06/27 09:18:24;;;;;;;8.95;3.95;;;;;;;33.23;36.51;100432.16;5020444;28;20052;-78
2021/06/27 09:21:30;;;;;;;9.45;3.45;;;;;;;33.01;36.63;100428.81;5031584;28;20057;-78
2021/06/27 09:24:35;;;;;;;12.23;4.03;;;;;;;32.76;37.14;100441.59;5020994;28;20049;-78
2021/06/27 09:27:41;;;;;;;12.18;3.75;;;;;;;32.94;36.67;100426.28;5032196;28;20053;-79
2021/06/27 09:30:55;;;;;;;9.50;3.88;;;;;;;32.78;36.37;100439.41;5032076;28;20100;-79
2021/06/27 09:34:01;;;;;;;11.20;3.72;;;;;;;32.67;36.31;100439.66;5019924;28;20048;-78
2021/06/27 09:37:07;;;;;;;10.00;3.88;;;;;;;32.89;35.87;100433.84;4991212;28;20052;-79
2021/06/27 09:40:12;;;;;;;13.13;4.22;;;;;;;33.08;36.81;100438.56;5013670;28;20511;-79
2021/06/27 09:43:18;;;;;;;13.20;3.50;;;;;;;33.55;36.65;100438.22;5002457;28;20401;-78
2021/06/27 09:46:30;;;;;;;8.40;2.65;;;;;;;33.73;35.78;100432.00;5002052;28;20056;-79
2021/06/27 09:49:36;;;;;;;9.40;3.10;;;;;;;33.09;36.16;100436.59;5024284;28;20053;-78
2021/06/27 09:52:40;;;;;;;16.52;3.65;;;;;;;32.99;35.56;100437.41;5024419;28;20056;-83
2021/06/27 09:55:58;;;;;;;11.50;3.20;;;;;;;33.39;35.21;100445.72;5001891;28;20511;-79
2021/06/27 09:59:08;;;;;;;7.65;2.58;;;;;;;32.85;35.24;100441.06;5012974;28;20048;-78
2021/06/27 10:02:13;;;;;;;10.77;2.88;;;;;;;32.42;36.28;100423.75;5001658;28;20393;-78
2021/06/27 10:05:27;;;;;;;6.80;1.90;;;;;;;32.22;34.16;100431.25;5013014;28;20057;-78
2021/06/27 10:08:34;;;;;;;8.35;2.28;;;;;;;32.28;33.63;100422.66;5024105;28;20049;-79
2021/06/27 10:11:40;;;;;;;4.60;1.80;;;;;;;32.53;33.82;100419.09;5013009;28;20045;-78
2021/06/27 10:14:51;;;;;;;15.30;2.83;;;;;;;32.75;35.99;100425.22;5023694;28;20049;-78
2021/06/27 10:17:56;;;;;;;7.35;2.20;;;;;;;32.93;36.08;100421.88;5001516;28;20049;-79
2021/06/27 10:21:00;;;;;;;7.88;2.08;;;;;;;32.90;35.22;100418.78;5012947;28;20393;-78
2021/06/27 10:24:05;;;;;;;6.75;1.70;;;;;;;32.85;34.58;100413.25;5001735;28;20049;-79
2021/06/27 10:27:10;;;;;;;7.80;2.28;;;;;;;32.88;33.60;100409.91;5013103;28;20133;-78
2021/06/27 10:30:15;;;;;;;9.50;2.08;;;;;;;32.74;35.00;100415.19;5012927;28;20053;-79
2021/06/27 10:33:19;;;;;;;8.90;1.92;;;;;;;32.98;35.17;100418.25;5025136;28;20076;-78
2021/06/27 10:36:31;;;;;;;5.22;1.75;;;;;;;32.89;34.94;100412.41;5024877;28;20120;-79
2021/06/27 10:39:38;;;;;;;11.35;2.72;;;;;;;32.71;34.65;100401.84;5013275;28;20052;-78
2021/06/27 10:42:48;;;;;;;8.60;5.30;;;;;;;32.74;34.19;100406.84;5024446;28;20052;-79
2021/06/27 10:45:53;;;;;;;10.15;1.83;;;;;;;32.68;33.59;100406.03;5024712;28;20056;-78
2021/06/27 10:48:59;;;;;;;6.22;1.80;;;;;;;32.40;34.42;100414.03;5024622;28;20041;-79
2021/06/27 10:52:24;;;;;;;5.78;1.42;;;;;;;32.37;33.66;100403.50;5024789;28;20061;-79
2021/06/27 10:55:42;;;;;;;4.30;1.50;;;;;;;32.47;33.72;100412.66;5022879;28;20060;-79
2021/06/27 10:58:46;;;;;;;9.50;1.48;;;;;;;32.54;33.57;100404.91;5000434;28;20044;-78
2021/06/27 11:02:26;;;;;;;4.20;1.88;;;;;;;32.43;32.46;100419.03;5023056;28;20040;-78
2021/06/27 11:05:35;;;;;;;4.78;1.38;;;;;;;32.38;32.45;100410.69;4964465;28;20053;-79
2021/06/27 11:08:42;;;;;;;4.68;1.60;;;;;;;32.17;33.08;100411.78;4953301;28;20054;-78
2021/06/27 11:11:56;;;;;;;5.30;1.75;;;;;;;32.33;32.88;100402.34;4964169;28;20058;-78
2021/06/27 11:15:14;;;;;;;5.38;1.98;;;;;;;32.47;32.61;100398.75;4934247;29;20050;-78
2021/06/27 11:18:43;;;;;;;9.52;2.08;;;;;;;32.39;32.72;100404.88;4923145;29;20050;-78
2021/06/27 11:21:47;;;;;;;3.95;1.60;;;;;;;32.35;32.93;100395.41;4922948;29;20058;-79
2021/06/27 11:24:55;;;;;;;10.55;1.63;;;;;;;32.43;34.12;100403.22;4933812;29;20059;-79
2021/06/27 11:28:23;;;;;;;6.88;1.40;;;;;;;32.26;32.37;100401.81;4923163;29;20047;-84
2021/06/27 11:31:28;;;;;;;3.45;1.35;;;;;;;32.46;31.55;100391.53;4945608;29;20054;-78
2021/06/27 11:34:32;;;;;;;11.48;1.85;;;;;;;32.48;33.40;100397.66;4933082;29;20046;-79
2021/06/27 11:37:37;;;;;;;9.95;1.70;;;;;;;32.37;33.23;100398.75;4922975;29;20050;-78
2021/06/27 11:40:48;;;;;;;6.18;1.33;;;;;;;32.37;32.87;100395.97;4966977;28;20137;-79
2021/06/27 11:43:59;;;;;;;4.38;1.40;;;;;;;32.33;32.09;100382.91;4991359;28;20048;-79
2021/06/27 11:47:22;;;;;;;6.13;1.77;;;;;;;32.40;32.54;100377.91;5011953;28;20049;-79
2021/06/27 11:50:28;;;;;;;5.20;1.35;;;;;;;32.51;30.60;100385.19;5012044;28;20052;-78
2021/06/27 11:53:32;;;;;;;7.00;1.50;;;;;;;32.62;31.47;100373.78;5012114;28;20500;-79
2021/06/27 11:56:58;;;;;;;9.88;2.47;;;;;;;32.57;32.36;100373.78;5023526;28;20080;-78
2021/06/27 12:00:06;;;;;;;9.63;1.50;;;;;;;32.48;32.46;100367.06;5023200;28;20068;-78
2021/06/27 12:03:16;;;;;;;6.65;1.42;;;;;;;32.29;32.67;100370.69;5023483;28;20515;-78
2021/06/27 12:06:20;;;;;;;5.53;1.60;;;;;;;32.35;32.06;100353.72;5023251;28;20052;-78
2021/06/27 12:09:35;;;;;;;3.53;1.20;;;;;;;32.40;32.25;100350.94;5022122;28;20103;-78
2021/06/27 12:12:41;;;;;;;6.10;1.20;;;;;;;32.51;31.82;100362.94;5010680;28;20064;-79
2021/06/27 12:15:51;;;;;;;5.20;2.97;;;;;;;32.57;32.14;100350.69;5021597;28;20168;-78
2021/06/27 12:18:59;;;;;;;5.57;4.47;;;;;;;32.53;32.61;100346.81;5032915;28;20048;-78
2021/06/27 12:22:03;;;;;;;8.05;1.30;;;;;;;32.63;32.29;100344.88;5021455;28;20056;-78
2021/06/27 12:25:09;;;;;;;4.63;1.30;;;;;;;32.80;30.93;100344.56;5021064;28;20053;-78
2021/06/27 12:28:29;;;;;;;5.47;1.30;;;;;;;32.73;30.38;100338.47;5032783;28;20048;-79
2021/06/27 12:31:33;;;;;;;4.80;1.10;;;;;;;32.83;30.85;100343.16;5032391;28;20064;-79
2021/06/27 12:34:38;;;;;;;4.25;1.25;;;;;;;32.63;31.27;100341.25;5020427;28;20057;-78
2021/06/27 12:37:43;;;;;;;6.32;1.00;;;;;;;32.50;30.40;100348.16;5032147;28;20210;-78
2021/06/27 12:40:51;;;;;;;3.38;1.33;;;;;;;32.62;30.68;100340.41;5032451;28;20045;-78
2021/06/27 12:44:00;;;;;;;7.03;1.33;;;;;;;32.65;30.04;100339.00;5020542;28;20053;-78
2021/06/27 12:47:05;;;;;;;4.57;1.13;;;;;;;32.83;30.17;100338.44;5015026;28;20056;-78
2021/06/27 12:50:10;;;;;;;7.25;1.00;;;;;;;32.95;30.24;100336.19;5022133;28;20068;-78
2021/06/27 12:53:14;;;;;;;2.95;0.93;;;;;;;32.72;29.70;100345.13;5021632;28;20056;-78
2021/06/27 12:56:19;;;;;;;6.60;1.30;;;;;;;32.64;30.42;100338.19;5010951;28;20116;-79
2021/06/27 12:59:44;;;;;;;5.00;1.15;;;;;;;32.77;30.42;100332.06;5022067;28;20056;-79
2021/06/27 13:02:49;;;;;;;2.85;1.08;;;;;;;32.73;29.86;100342.06;5021751;28;20396;-78
2021/06/27 13:05:58;;;;;;;5.63;1.08;;;;;;;32.76;29.21;100337.91;5022242;28;20496;-78
2021/06/27 13:09:15;;;;;;;2.90;1.05;;;;;;;32.78;29.47;100330.94;5010629;28;20048;-79
2021/06/27 13:12:22;;;;;;;4.18;1.13;;;;;;;32.86;29.56;100325.91;5022069;28;20052;-82
2021/06/27 13:15:35;;;;;;;9.05;7.40;;;;;;;32.85;29.76;100327.03;5021654;28;20052;-78
2021/06/27 13:18:40;;;;;;;6.43;1.30;;;;;;;32.85;29.88;100324.25;5021807;28;20049;-78
2021/06/27 13:21:44;;;;;;;4.72;1.08;;;;;;;32.77;29.77;100320.94;5010474;28;20056;-79
2021/06/27 13:25:00;;;;;;;5.38;1.30;;;;;;;32.80;29.52;100313.97;5021714;28;20057;-79
2021/06/27 13:28:20;;;;;;;5.13;1.10;;;;;;;32.86;29.72;100314.78;5021438;28;20504;-78
2021/06/27 13:31:24;;;;;;;4.45;1.20;;;;;;;32.94;29.30;100317.81;5021547;28;20392;-78
2021/06/27 13:34:32;;;;;;;4.57;1.17;;;;;;;33.03;28.83;100313.38;5021261;28;20052;-78
2021/06/27 13:37:51;;;;;;;4.60;1.10;;;;;;;32.91;29.33;100312.84;5021653;28;20381;-79
2021/06/27 13:40:56;;;;;;;5.88;1.27;;;;;;;32.90;28.53;100318.66;5010298;28;20104;-79
2021/06/27 13:44:03;;;;;;;4.72;1.05;;;;;;;33.02;28.90;100314.47;5021591;28;20053;-78
2021/06/27 13:47:08;;;;;;;3.47;0.98;;;;;;;33.09;28.55;100311.41;5021536;28;20060;-79
2021/06/27 13:50:12;;;;;;;4.43;1.45;;;;;;;33.20;28.79;100310.25;5021634;28;20113;-78
2021/06/27 13:53:17;;;;;;;4.10;1.00;;;;;;;33.17;28.16;100313.59;5021373;28;20056;-79
2021/06/27 13:56:23;;;;;;;3.42;1.20;;;;;;;33.30;28.67;100304.66;5020419;28;20072;-79
2021/06/27 13:59:27;;;;;;;3.22;0.80;;;;;;;33.20;28.01;100313.03;5020000;28;20048;-79
2021/06/27 14:02:32;;;;;;;5.10;1.00;;;;;;;33.14;28.53;100305.81;5020000;28;20049;-80
2021/06/27 14:05:37;;;;;;;4.07;1.20;;;;;;;33.07;28.77;100294.16;5032228;28;20061;-79
2021/06/27 14:08:42;;;;;;;4.95;1.00;;;;;;;33.17;29.21;100305.25;5035362;28;20144;-79
2021/06/27 14:11:46;;;;;;;5.38;1.20;;;;;;;33.19;29.40;100298.28;5035508;28;20492;-79
2021/06/27 14:14:51;;;;;;;4.78;1.08;;;;;;;33.16;28.92;100303.63;5023885;28;20140;-80
2021/06/27 14:17:56;;;;;;;4.38;1.10;;;;;;;33.18;28.93;100301.38;5035197;28;20049;-79
2021/06/27 14:21:01;;;;;;;6.05;1.20;;;;;;;33.19;29.15;100300.25;5023636;28;20060;-79
2021/06/27 14:24:05;;;;;;;3.75;1.00;;;;;;;33.19;29.26;100297.47;5034831;28;20145;-80
2021/06/27 14:27:10;;;;;;;4.78;1.00;;;;;;;33.10;29.19;100288.88;5024804;28;20053;-79